sensor_id;sensor_type;location;lat;lon;timestamp;P1;durP1;ratioP1;P2;durP2;ratioP2
63018;SDS011;49105;46.046;10.760;2023-06-04T19:20:39;4.38;;;4.28;;
63018;SDS011;49105;46.046;10.760;2023-06-04T19:23:05;4.10;;;4.00;;
63018;SDS011;49105;46.046;10.760;2023-06-04T19:25:30;4.80;;;4.50;;
63018;SDS011;49105;46.046;10.760;2023-06-04T19:27:56;3.90;;;3.80;;
63018;SDS011;49105;46.046;10.760;2023-06-04T19:30:22;4.10;;;4.00;;
63018;SDS011;49105;46.046;10.760;2023-06-04T19:32:49;4.15;;;4.05;;
63018;SDS011;49105;46.046;10.760;2023-06-04T19:35:18;3.78;;;3.67;;
63018;SDS011;49105;46.046;10.760;2023-06-04T19:37:43;4.43;;;4.28;;
63018;SDS011;49105;46.046;10.760;2023-06-04T19:40:09;3.97;;;3.88;;
63018;SDS011;49105;46.046;10.760;2023-06-04T19:42:35;3.80;;;3.70;;
63018;SDS011;49105;46.046;10.760;2023-06-04T19:45:01;3.83;;;3.72;;
63018;SDS011;49105;46.046;10.760;2023-06-04T19:47:27;3.60;;;3.50;;
63018;SDS011;49105;46.046;10.760;2023-06-04T19:49:53;4.53;;;4.32;;
63018;SDS011;49105;46.046;10.760;2023-06-04T19:52:19;4.13;;;4.03;;
63018;SDS011;49105;46.046;10.760;2023-06-04T19:54:45;3.63;;;3.53;;
63018;SDS011;49105;46.046;10.760;2023-06-04T19:57:11;3.67;;;3.58;;
63018;SDS011;49105;46.046;10.760;2023-06-04T19:59:40;3.50;;;3.40;;
63018;SDS011;49105;46.046;10.760;2023-06-04T20:02:05;3.40;;;3.30;;
63018;SDS011;49105;46.046;10.760;2023-06-04T20:04:41;3.72;;;3.55;;
63018;SDS011;49105;46.046;10.760;2023-06-04T20:07:12;3.72;;;3.63;;
63018;SDS011;49105;46.046;10.760;2023-06-04T20:09:40;3.50;;;3.40;;
63018;SDS011;49105;46.046;10.760;2023-06-04T20:12:05;3.47;;;3.38;;
63018;SDS011;49105;46.046;10.760;2023-06-04T20:14:31;3.42;;;3.33;;
63018;SDS011;49105;46.046;10.760;2023-06-04T20:16:57;3.45;;;3.35;;
63018;SDS011;49105;46.046;10.760;2023-06-04T20:19:22;4.57;;;4.22;;
63018;SDS011;49105;46.046;10.760;2023-06-04T20:21:48;3.05;;;2.95;;
63018;SDS011;49105;46.046;10.760;2023-06-04T20:24:13;2.90;;;2.80;;
63018;SDS011;49105;46.046;10.760;2023-06-04T20:26:46;3.20;;;3.10;;
63018;SDS011;49105;46.046;10.760;2023-06-04T20:29:12;2.90;;;2.80;;
63018;SDS011;49105;46.046;10.760;2023-06-04T20:31:37;2.60;;;2.60;;
63018;SDS011;49105;46.046;10.760;2023-06-04T20:34:09;2.60;;;2.60;;
63018;SDS011;49105;46.046;10.760;2023-06-04T20:36:34;2.60;;;2.60;;
63018;SDS011;49105;46.046;10.760;2023-06-04T20:39:02;3.00;;;2.90;;
63018;SDS011;49105;46.046;10.760;2023-06-04T20:41:28;2.90;;;2.80;;
63018;SDS011;49105;46.046;10.760;2023-06-04T20:43:54;3.40;;;3.30;;
63018;SDS011;49105;46.046;10.760;2023-06-04T20:46:20;2.80;;;2.70;;
63018;SDS011;49105;46.046;10.760;2023-06-04T20:48:46;3.10;;;3.00;;
63018;SDS011;49105;46.046;10.760;2023-06-04T20:51:18;2.95;;;2.85;;
63018;SDS011;49105;46.046;10.760;2023-06-04T20:53:46;3.08;;;2.97;;
63018;SDS011;49105;46.046;10.760;2023-06-04T20:56:12;2.97;;;2.88;;
63018;SDS011;49105;46.046;10.760;2023-06-04T20:58:38;3.00;;;2.90;;
63018;SDS011;49105;46.046;10.760;2023-06-04T21:01:11;2.70;;;2.60;;
63018;SDS011;49105;46.046;10.760;2023-06-04T21:03:36;3.00;;;2.90;;
63018;SDS011;49105;46.046;10.760;2023-06-04T21:06:02;2.97;;;2.88;;
63018;SDS011;49105;46.046;10.760;2023-06-04T21:08:37;2.72;;;2.63;;
63018;SDS011;49105;46.046;10.760;2023-06-04T21:14:24;2.97;;;2.88;;
63018;SDS011;49105;46.046;10.760;2023-06-04T21:16:57;2.90;;;2.80;;
63018;SDS011;49105;46.046;10.760;2023-06-04T21:19:29;3.33;;;3.22;;
63018;SDS011;49105;46.046;10.760;2023-06-04T21:24:19;3.30;;;3.20;;
63018;SDS011;49105;46.046;10.760;2023-06-04T21:26:54;2.90;;;2.80;;
63018;SDS011;49105;46.046;10.760;2023-06-04T21:29:19;3.05;;;2.95;;
63018;SDS011;49105;46.046;10.760;2023-06-04T21:31:45;3.00;;;2.90;;
63018;SDS011;49105;46.046;10.760;2023-06-04T21:34:20;3.08;;;2.97;;
63018;SDS011;49105;46.046;10.760;2023-06-04T21:36:51;3.30;;;3.20;;
63018;SDS011;49105;46.046;10.760;2023-06-04T21:39:17;2.80;;;2.70;;
63018;SDS011;49105;46.046;10.760;2023-06-04T21:41:50;3.10;;;3.00;;
63018;SDS011;49105;46.046;10.760;2023-06-04T21:44:15;3.00;;;2.90;;
63018;SDS011;49105;46.046;10.760;2023-06-04T21:46:41;2.90;;;2.80;;
63018;SDS011;49105;46.046;10.760;2023-06-04T21:49:06;2.90;;;2.80;;
63018;SDS011;49105;46.046;10.760;2023-06-04T21:51:32;3.20;;;3.10;;
63018;SDS011;49105;46.046;10.760;2023-06-04T21:53:57;3.17;;;3.08;;
63018;SDS011;49105;46.046;10.760;2023-06-04T21:56:22;3.25;;;3.15;;
63018;SDS011;49105;46.046;10.760;2023-06-04T21:58:48;3.25;;;3.15;;
63018;SDS011;49105;46.046;10.760;2023-06-04T22:01:14;3.20;;;3.10;;
63018;SDS011;49105;46.046;10.760;2023-06-04T22:03:42;3.00;;;2.90;;
63018;SDS011;49105;46.046;10.760;2023-06-04T22:06:07;3.10;;;3.00;;
63018;SDS011;49105;46.046;10.760;2023-06-04T22:08:33;3.00;;;2.90;;
63018;SDS011;49105;46.046;10.760;2023-06-04T22:10:58;3.00;;;2.90;;
63018;SDS011;49105;46.046;10.760;2023-06-04T22:13:33;3.08;;;2.97;;
63018;SDS011;49105;46.046;10.760;2023-06-04T22:15:58;3.00;;;2.90;;
63018;SDS011;49105;46.046;10.760;2023-06-04T22:18:24;3.00;;;2.90;;
63018;SDS011;49105;46.046;10.760;2023-06-04T22:20:55;3.00;;;2.90;;
63018;SDS011;49105;46.046;10.760;2023-06-04T22:23:21;2.90;;;2.80;;
63018;SDS011;49105;46.046;10.760;2023-06-04T22:25:47;3.13;;;3.03;;
63018;SDS011;49105;46.046;10.760;2023-06-04T22:28:18;2.85;;;2.75;;
63018;SDS011;49105;46.046;10.760;2023-06-04T22:33:15;3.00;;;2.90;;
63018;SDS011;49105;46.046;10.760;2023-06-04T22:35:42;2.80;;;2.70;;
63018;SDS011;49105;46.046;10.760;2023-06-04T22:38:13;2.90;;;2.80;;
63018;SDS011;49105;46.046;10.760;2023-06-04T22:40:38;3.00;;;2.90;;
63018;SDS011;49105;46.046;10.760;2023-06-04T22:43:13;2.92;;;2.83;;
63018;SDS011;49105;46.046;10.760;2023-06-04T22:45:47;2.90;;;2.80;;
63018;SDS011;49105;46.046;10.760;2023-06-04T22:48:13;2.80;;;2.70;;
63018;SDS011;49105;46.046;10.760;2023-06-04T22:50:50;2.90;;;2.80;;
63018;SDS011;49105;46.046;10.760;2023-06-04T22:53:16;2.67;;;2.60;;
63018;SDS011;49105;46.046;10.760;2023-06-04T22:55:45;3.35;;;3.25;;
63018;SDS011;49105;46.046;10.760;2023-06-04T22:58:11;2.90;;;2.80;;
63018;SDS011;49105;46.046;10.760;2023-06-04T23:00:37;3.08;;;2.97;;
63018;SDS011;49105;46.046;10.760;2023-06-04T23:03:09;2.80;;;2.70;;
63018;SDS011;49105;46.046;10.760;2023-06-04T23:05:35;2.90;;;2.80;;
63018;SDS011;49105;46.046;10.760;2023-06-04T23:08:09;2.90;;;2.80;;
63018;SDS011;49105;46.046;10.760;2023-06-04T23:10:35;3.03;;;2.92;;
63018;SDS011;49105;46.046;10.760;2023-06-04T23:13:12;2.80;;;2.70;;
63018;SDS011;49105;46.046;10.760;2023-06-04T23:15:39;2.92;;;2.83;;
63018;SDS011;49105;46.046;10.760;2023-06-04T23:18:05;2.97;;;2.88;;
63018;SDS011;49105;46.046;10.760;2023-06-04T23:20:31;2.80;;;2.70;;
63018;SDS011;49105;46.046;10.760;2023-06-04T23:23:03;2.50;;;2.50;;
63018;SDS011;49105;46.046;10.760;2023-06-04T23:25:28;2.90;;;2.80;;
63018;SDS011;49105;46.046;10.760;2023-06-04T23:27:54;2.85;;;2.75;;
63018;SDS011;49105;46.046;10.760;2023-06-04T23:30:25;2.80;;;2.70;;
63018;SDS011;49105;46.046;10.760;2023-06-04T23:32:54;2.90;;;2.80;;
63018;SDS011;49105;46.046;10.760;2023-06-04T23:35:19;2.80;;;2.70;;
63018;SDS011;49105;46.046;10.760;2023-06-04T23:37:45;2.72;;;2.63;;
63018;SDS011;49105;46.046;10.760;2023-06-04T23:40:13;3.20;;;3.10;;
63018;SDS011;49105;46.046;10.760;2023-06-04T23:42:39;2.90;;;2.80;;
63018;SDS011;49105;46.046;10.760;2023-06-04T23:45:04;3.67;;;3.25;;
63018;SDS011;49105;46.046;10.760;2023-06-04T23:47:30;2.90;;;2.80;;
63018;SDS011;49105;46.046;10.760;2023-06-04T23:49:58;2.60;;;2.60;;
63018;SDS011;49105;46.046;10.760;2023-06-04T23:52:24;2.60;;;2.60;;
63018;SDS011;49105;46.046;10.760;2023-06-04T23:54:56;2.40;;;2.40;;
63018;SDS011;49105;46.046;10.760;2023-06-04T23:57:21;2.63;;;2.60;;
63018;SDS011;49105;46.046;10.760;2023-06-04T23:59:46;3.67;;;3.47;;
